Time;durP1;ratioP1;P1;durP2;ratioP2;P2;SDS_P1;SDS_P2;PMS_P1;PMS_P2;Temp;Humidity;BMP_temperature;BMP_pressure;BME280_temperature;BME280_humidity;BME280_pressure;Samples;Min_cycle;Max_cycle;Signal;HPM_P1;HPM_P2
2022/02/15 00:01:49;;;;;;;6.57;3.13;;;4.60;99.90;;;5.34;100.00;97342.06;5034939;28;20489;-75
2022/02/15 00:04:19;;;;;;;5.70;3.33;;;4.70;99.90;;;5.36;100.00;97346.09;5034908;28;20515;-75
2022/02/15 00:06:51;;;;;;;4.20;2.50;;;4.70;99.90;;;5.39;100.00;97348.34;5033063;28;20867;-75
2022/02/15 00:09:21;;;;;;;3.77;2.80;;;4.60;99.90;;;5.44;100.00;97345.25;5035579;28;20456;-75
2022/02/15 00:11:51;;;;;;;7.27;2.80;;;4.80;99.90;;;5.46;100.00;97349.28;5036875;28;20500;-75
2022/02/15 00:14:22;;;;;;;6.10;2.83;;;4.70;99.90;;;5.41;100.00;97351.59;5035507;28;20461;-75
2022/02/15 00:16:51;;;;;;;6.23;3.70;;;4.60;99.90;;;5.41;100.00;97343.81;5032444;28;20493;-75
2022/02/15 00:19:20;;;;;;;6.83;4.10;;;4.50;99.90;;;5.43;100.00;97346.22;5032834;28;20470;-75
2022/02/15 00:21:51;;;;;;;7.63;4.73;;;4.60;99.90;;;5.48;100.00;97351.72;5034323;28;20548;-75
2022/02/15 00:24:21;;;;;;;8.27;4.20;;;4.70;99.90;;;5.51;100.00;97352.16;5033612;28;20465;-75
2022/02/15 00:26:50;;;;;;;9.77;4.40;;;4.70;99.90;;;5.54;100.00;97344.03;5032846;28;20462;-75
2022/02/15 00:29:20;;;;;;;9.33;4.07;;;4.90;99.90;;;5.58;100.00;97342.72;5030535;28;20505;-75
2022/02/15 00:31:50;;;;;;;7.10;4.53;;;4.90;99.90;;;5.62;100.00;97350.16;5033732;28;20580;-75
2022/02/15 00:34:21;;;;;;;7.40;4.23;;;4.90;99.90;;;5.61;100.00;97345.94;5033955;28;20453;-75
2022/02/15 00:36:51;;;;;;;8.00;5.10;;;4.80;99.90;;;5.63;100.00;97349.16;5034393;28;20500;-75
2022/02/15 00:39:20;;;;;;;9.17;4.87;;;4.80;99.90;;;5.67;100.00;97351.25;5033948;28;20464;-75
2022/02/15 00:41:49;;;;;;;12.87;7.90;;;5.00;99.90;;;5.75;100.00;97350.38;5037452;28;20515;-75
2022/02/15 00:44:19;;;;;;;12.43;8.77;;;5.00;99.90;;;5.79;100.00;97357.66;5034590;28;20807;-75
2022/02/15 00:46:49;;;;;;;12.27;6.50;;;5.10;99.90;;;5.82;100.00;97352.09;5033068;28;20464;-75
2022/02/15 00:49:19;;;;;;;11.17;7.57;;;5.10;99.90;;;5.85;100.00;97358.72;5032212;28;20958;-75
2022/02/15 00:51:49;;;;;;;13.00;7.27;;;5.10;99.90;;;5.86;100.00;97350.00;5033125;28;20500;-75
2022/02/15 00:54:21;;;;;;;16.00;7.90;;;5.10;99.90;;;5.90;100.00;97351.28;5032779;28;21025;-75
2022/02/15 00:56:51;;;;;;;17.10;8.73;;;5.20;99.90;;;5.93;100.00;97345.72;5033512;28;20984;-75
2022/02/15 00:59:22;;;;;;;13.30;8.10;;;5.20;99.90;;;5.94;100.00;97345.53;5034141;28;20516;-75
2022/02/15 01:01:51;;;;;;;11.53;7.53;;;5.20;99.90;;;5.97;100.00;97349.59;5033083;28;21126;-75
2022/02/15 01:04:21;;;;;;;11.73;7.67;;;5.30;99.90;;;5.98;100.00;97354.59;5035697;28;20458;-75
2022/02/15 01:06:53;;;;;;;18.90;8.83;;;5.30;99.90;;;6.00;100.00;97351.84;5032561;28;20958;-75
2022/02/15 01:09:24;;;;;;;13.20;8.50;;;5.30;99.90;;;6.05;100.00;97365.06;5034986;28;20457;-75
2022/02/15 01:11:53;;;;;;;23.63;10.17;;;5.40;99.90;;;6.10;100.00;97356.78;5033036;28;20489;-75
2022/02/15 01:14:24;;;;;;;16.43;8.00;;;5.50;99.90;;;6.14;100.00;97358.84;5035133;28;20777;-75
2022/02/15 01:16:52;;;;;;;22.10;10.70;;;5.50;99.90;;;6.18;100.00;97360.09;5030089;28;20466;-75
2022/02/15 01:19:22;;;;;;;20.43;10.13;;;5.60;99.90;;;6.23;100.00;97362.97;5035436;28;20500;-75
2022/02/15 01:21:53;;;;;;;28.07;10.73;;;5.70;99.90;;;6.27;100.00;97369.44;5037235;28;21024;-75
2022/02/15 01:24:23;;;;;;;15.37;9.10;;;5.70;99.90;;;6.31;100.00;97364.69;5031002;28;20460;-75
2022/02/15 01:26:53;;;;;;;17.93;8.47;;;5.60;99.90;;;6.33;100.00;97360.94;5033025;28;20461;-75
2022/02/15 01:29:22;;;;;;;17.67;8.33;;;5.70;99.90;;;6.36;100.00;97362.34;5033309;28;20491;-75
2022/02/15 01:31:51;;;;;;;18.40;8.30;;;5.70;99.90;;;6.36;100.00;97365.75;5033837;28;20485;-75
2022/02/15 01:34:21;;;;;;;18.93;9.50;;;5.70;99.90;;;6.39;100.00;97362.81;5033391;28;20461;-75
2022/02/15 01:36:52;;;;;;;13.80;8.57;;;5.70;99.90;;;6.40;100.00;97369.63;5030930;28;20489;-75
2022/02/15 01:39:21;;;;;;;13.07;9.23;;;5.70;99.90;;;6.42;100.00;97365.03;5030905;28;20548;-75
2022/02/15 01:41:52;;;;;;;18.40;9.10;;;5.80;99.90;;;6.46;100.00;97361.09;5033994;28;20465;-75
2022/02/15 01:44:21;;;;;;;18.60;9.60;;;5.90;99.90;;;6.48;100.00;97360.94;5033392;28;21046;-75
2022/02/15 01:46:52;;;;;;;14.07;9.00;;;5.90;99.90;;;6.48;100.00;97355.75;5033454;28;20476;-75
2022/02/15 01:49:22;;;;;;;18.47;10.10;;;5.90;99.90;;;6.51;100.00;97358.81;5029512;28;20469;-76
2022/02/15 01:51:53;;;;;;;14.63;9.57;;;5.90;99.90;;;6.51;100.00;97361.41;5032176;28;20454;-75
2022/02/15 01:54:23;;;;;;;17.93;8.60;;;5.90;99.90;;;6.54;100.00;97361.03;5031080;28;20469;-75
2022/02/15 01:56:54;;;;;;;14.97;8.43;;;6.00;99.90;;;6.56;100.00;97363.44;5030529;28;20825;-75
2022/02/15 01:59:24;;;;;;;18.93;9.07;;;6.00;99.90;;;6.58;100.00;97356.28;5033065;28;20512;-75
2022/02/15 02:01:55;;;;;;;11.77;8.20;;;6.00;99.90;;;6.61;100.00;97357.72;5031009;28;20562;-75
2022/02/15 02:07:16;;;;;;;11.57;7.70;;;6.00;99.90;;;6.62;100.00;97356.75;5029987;28;20483;-75
2022/02/15 02:09:46;;;;;;;13.00;8.10;;;6.00;99.90;;;6.61;100.00;97365.50;5030263;28;20466;-75
2022/02/15 02:12:16;;;;;;;15.87;8.03;;;5.90;99.90;;;6.60;100.00;97364.69;5029787;28;20501;-75
2022/02/15 02:14:56;;;;;;;13.83;7.23;;;5.90;99.90;;;6.62;100.00;97369.72;5031194;28;20820;-75
2022/02/15 02:17:26;;;;;;;9.87;7.17;;;5.90;99.90;;;6.63;100.00;97355.75;5031771;28;20474;-75
2022/02/15 02:19:56;;;;;;;9.77;6.70;;;6.00;99.90;;;6.66;100.00;97369.19;5031975;28;20469;-75
2022/02/15 02:22:29;;;;;;;11.00;6.67;;;6.00;99.90;;;6.67;100.00;97369.97;5031863;28;20527;-75
2022/02/15 02:25:02;;;;;;;8.87;6.80;;;5.90;99.90;;;6.66;100.00;97363.19;5033026;28;20915;-75
2022/02/15 02:27:34;;;;;;;8.90;6.70;;;6.00;99.90;;;6.65;100.00;97374.56;5036500;28;20437;-75
2022/02/15 02:30:05;;;;;;;11.17;6.47;;;5.90;99.90;;;6.63;100.00;97359.16;5034287;28;20468;-75
2022/02/15 02:32:35;;;;;;;8.40;6.43;;;5.90;99.90;;;6.64;100.00;97367.75;5035941;28;21090;-75
2022/02/15 02:35:08;;;;;;;14.10;6.40;;;6.00;99.90;;;6.67;100.00;97368.19;5035309;28;20450;-75
2022/02/15 02:37:41;;;;;;;4.90;3.70;;;6.00;99.90;;;6.66;100.00;97365.78;5034092;28;20473;-75
2022/02/15 02:40:13;;;;;;;7.10;4.73;;;6.00;99.90;;;6.66;100.00;97360.59;5033455;28;20469;-75
2022/02/15 02:42:43;;;;;;;6.60;4.50;;;6.00;99.90;;;6.67;100.00;97375.19;5035871;28;20473;-75
2022/02/15 02:45:16;;;;;;;5.73;4.00;;;6.00;99.90;;;6.66;100.00;97369.19;5034189;28;20522;-75
2022/02/15 02:47:47;;;;;;;5.00;3.93;;;6.10;99.90;;;6.69;100.00;97373.22;5032782;28;20502;-75
2022/02/15 02:50:21;;;;;;;7.03;4.00;;;6.10;99.90;;;6.69;100.00;97375.81;5033316;28;20473;-75
2022/02/15 02:52:52;;;;;;;5.70;4.10;;;6.10;99.90;;;6.69;100.00;97370.63;5028232;28;20631;-75
2022/02/15 02:55:22;;;;;;;5.67;4.27;;;6.10;99.90;;;6.70;100.00;97382.63;5028221;28;20454;-75
2022/02/15 02:57:53;;;;;;;5.43;3.87;;;6.10;99.90;;;6.71;100.00;97376.44;5033877;28;20489;-75
2022/02/15 03:00:22;;;;;;;6.00;3.77;;;6.10;99.90;;;6.70;100.00;97380.03;5034789;28;20492;-75
2022/02/15 03:02:53;;;;;;;4.60;3.40;;;6.10;99.90;;;6.70;100.00;97380.81;5035716;28;20482;-75
2022/02/15 03:05:23;;;;;;;4.00;3.57;;;6.20;99.90;;;6.70;100.00;97374.84;5034402;28;20458;-75
2022/02/15 03:07:53;;;;;;;6.63;3.43;;;6.10;99.90;;;6.71;100.00;97376.44;5035100;28;20450;-75
2022/02/15 03:10:23;;;;;;;5.73;3.07;;;6.10;99.90;;;6.71;100.00;97382.44;5034802;28;20969;-75
2022/02/15 03:12:52;;;;;;;4.10;3.37;;;6.20;99.90;;;6.71;100.00;97392.03;5034380;28;20874;-75
2022/02/15 03:15:22;;;;;;;3.23;2.70;;;6.20;99.90;;;6.72;100.00;97388.44;5034519;28;20842;-75
2022/02/15 03:17:51;;;;;;;6.03;2.90;;;6.20;99.90;;;6.72;100.00;97393.66;5030919;28;20873;-75
2022/02/15 03:20:31;;;;;;;5.60;2.80;;;6.20;99.90;;;6.74;100.00;97396.84;5030105;28;21016;-75
2022/02/15 03:23:02;;;;;;;6.27;2.57;;;6.20;99.90;;;6.73;100.00;97400.47;5029458;28;20541;-75
2022/02/15 03:25:31;;;;;;;3.20;2.60;;;6.20;99.90;;;6.72;100.00;97404.84;5029746;28;20915;-75
2022/02/15 03:28:01;;;;;;;4.07;2.50;;;6.10;99.90;;;6.71;100.00;97397.22;5032840;28;21202;-75
2022/02/15 03:30:31;;;;;;;2.30;2.10;;;6.20;99.90;;;6.71;100.00;97402.41;5029009;28;20469;-75
2022/02/15 03:33:03;;;;;;;6.00;2.30;;;6.10;99.90;;;6.72;100.00;97404.03;5030807;28;21223;-75
2022/02/15 03:35:34;;;;;;;4.63;2.33;;;6.10;99.90;;;6.72;100.00;97415.25;5030962;28;20469;-75
2022/02/15 03:38:05;;;;;;;2.77;2.23;;;6.10;99.90;;;6.72;100.00;97417.03;5032186;28;21034;-75
2022/02/15 03:43:24;;;;;;;2.13;1.93;;;6.20;99.90;;;6.71;100.00;97415.41;5029729;28;20845;-75
2022/02/15 03:45:53;;;;;;;2.43;2.00;;;6.00;99.90;;;6.72;100.00;97424.81;5030730;28;20904;-75
2022/02/15 03:48:23;;;;;;;3.13;1.83;;;6.00;99.90;;;6.73;100.00;97421.25;5031825;28;20453;-75
2022/02/15 03:50:54;;;;;;;1.87;1.67;;;6.00;99.90;;;6.74;100.00;97428.03;5031648;28;20470;-75
2022/02/15 03:53:24;;;;;;;5.20;1.50;;;6.10;99.90;;;6.73;100.00;97434.25;5035305;28;20504;-75
2022/02/15 03:55:54;;;;;;;2.30;1.90;;;6.00;99.90;;;6.71;100.00;97433.59;5036134;28;20857;-75
2022/02/15 03:58:23;;;;;;;4.23;2.00;;;6.20;99.90;;;6.71;100.00;97437.00;5034101;28;20500;-75
2022/02/15 04:00:55;;;;;;;2.03;1.50;;;6.20;99.90;;;6.69;100.00;97433.78;5034516;28;20495;-76
2022/02/15 04:03:25;;;;;;;1.87;1.77;;;6.10;99.90;;;6.69;100.00;97435.56;5035930;28;20909;-75
2022/02/15 04:05:57;;;;;;;1.73;1.63;;;6.00;99.90;;;6.70;100.00;97437.19;5034695;28;20997;-75
2022/02/15 04:08:29;;;;;;;5.07;1.87;;;5.90;99.90;;;6.69;100.00;97445.97;5035594;28;20492;-75
2022/02/15 04:10:59;;;;;;;1.70;1.60;;;5.90;99.90;;;6.69;100.00;97448.56;5034370;28;20760;-75
2022/02/15 04:13:30;;;;;;;5.30;2.20;;;5.90;99.90;;;6.70;100.00;97445.00;5034473;28;20489;-75
2022/02/15 04:15:59;;;;;;;2.93;1.80;;;6.00;99.90;;;6.71;100.00;97449.19;5037846;28;20457;-75
2022/02/15 04:18:27;;;;;;;2.10;1.93;;;5.90;99.90;;;6.72;100.00;97450.81;5036255;28;20477;-75
2022/02/15 04:20:57;;;;;;;2.33;1.67;;;6.00;99.90;;;6.73;100.00;97447.22;5034940;28;20474;-75
2022/02/15 04:23:29;;;;;;;3.57;2.33;;;6.00;99.90;;;6.71;100.00;97452.59;5036150;28;20462;-76
2022/02/15 04:25:59;;;;;;;6.53;2.03;;;6.00;99.90;;;6.71;100.00;97452.59;5034356;28;20461;-75
2022/02/15 04:28:29;;;;;;;6.23;2.20;;;6.20;99.90;;;6.71;100.00;97459.56;5031819;28;20465;-75
2022/02/15 04:30:59;;;;;;;2.90;2.23;;;6.10;99.90;;;6.71;100.00;97464.75;5034331;28;20465;-75
2022/02/15 04:33:28;;;;;;;6.77;2.43;;;6.00;99.90;;;6.71;100.00;97467.38;5029508;28;20524;-79
2022/02/15 04:35:57;;;;;;;5.93;2.67;;;5.90;99.90;;;6.67;100.00;97472.09;5034414;28;20460;-75
2022/02/15 04:38:27;;;;;;;5.53;2.43;;;5.90;99.90;;;6.68;100.00;97475.50;5031032;28;20848;-75
2022/02/15 04:40:57;;;;;;;4.50;2.77;;;5.90;99.90;;;6.69;100.00;97475.34;5035324;28;20873;-75
2022/02/15 04:43:26;;;;;;;2.60;2.10;;;5.90;99.90;;;6.67;100.00;97479.09;5031398;28;22076;-75
2022/02/15 04:45:56;;;;;;;2.40;2.20;;;5.90;99.90;;;6.64;100.00;97479.44;5033141;28;20577;-75
2022/02/15 04:48:26;;;;;;;5.53;2.33;;;5.80;99.90;;;6.63;100.00;97477.84;5037271;28;20493;-84
2022/02/15 04:50:57;;;;;;;2.83;2.20;;;5.90;99.90;;;6.63;100.00;97488.25;5032403;28;20493;-77
2022/02/15 04:53:29;;;;;;;2.20;1.97;;;5.80;99.90;;;6.62;100.00;97491.81;5033174;28;20480;-75
2022/02/15 04:56:02;;;;;;;2.20;1.90;;;5.90;99.90;;;6.61;100.00;97493.59;5034920;28;20863;-75
2022/02/15 04:58:31;;;;;;;3.33;2.30;;;5.80;99.90;;;6.61;100.00;97495.38;5033956;28;21237;-75
2022/02/15 05:01:02;;;;;;;2.20;2.00;;;5.80;99.90;;;6.60;100.00;97499.75;5033775;28;20481;-75
2022/02/15 05:03:33;;;;;;;4.40;2.20;;;5.70;99.90;;;6.59;100.00;97498.94;5032544;28;20989;-75
2022/02/15 05:06:04;;;;;;;2.70;2.40;;;5.70;99.90;;;6.60;100.00;97504.97;5031487;28;20473;-75
2022/02/15 05:08:35;;;;;;;3.50;2.20;;;5.80;99.90;;;6.57;100.00;97511.31;5032371;28;20453;-75
2022/02/15 05:11:05;;;;;;;2.90;2.30;;;5.70;99.90;;;6.57;100.00;97510.50;5035201;28;20927;-75
2022/02/15 05:13:35;;;;;;;2.60;2.40;;;5.70;99.90;;;6.59;100.00;97518.94;5032302;28;20487;-76
2022/02/15 05:16:06;;;;;;;80.87;39.50;;;5.70;99.90;;;6.57;100.00;97516.50;5032476;28;20465;-74
2022/02/15 05:18:36;;;;;;;6.83;4.53;;;5.80;99.90;;;6.57;100.00;97521.72;5033597;28;20916;-75
2022/02/15 05:21:09;;;;;;;2.27;2.07;;;5.70;99.90;;;6.56;100.00;97520.09;5036136;28;20981;-75
2022/02/15 05:23:41;;;;;;;4.60;2.27;;;5.70;99.90;;;6.55;100.00;97523.69;5035194;28;20456;-75
2022/02/15 05:26:12;;;;;;;3.07;2.13;;;5.70;99.90;;;6.54;100.00;97527.25;5036343;28;20457;-75
2022/02/15 05:28:42;;;;;;;3.03;2.60;;;5.70;99.90;;;6.55;100.00;97526.28;5036046;28;20736;-75
2022/02/15 05:31:14;;;;;;;16.83;8.33;;;5.70;99.90;;;6.54;100.00;97524.66;5035002;28;20787;-82
2022/02/15 05:33:43;;;;;;;8.20;4.97;;;5.70;99.90;;;6.53;100.00;97543.00;5036516;28;20485;-74
2022/02/15 05:36:15;;;;;;;4.10;2.70;;;5.70;99.90;;;6.52;100.00;97534.44;5035410;28;20495;-80
2022/02/15 05:38:46;;;;;;;3.23;2.43;;;5.70;99.90;;;6.50;100.00;97545.94;5036682;28;20453;-75
2022/02/15 05:41:16;;;;;;;2.20;1.80;;;5.60;99.90;;;6.51;100.00;97548.38;5035199;28;20489;-74
2022/02/15 05:43:45;;;;;;;7.13;2.60;;;5.60;99.90;;;6.47;100.00;97551.50;5036809;28;20470;-75
2022/02/15 05:46:15;;;;;;;2.70;2.10;;;5.60;99.90;;;6.42;100.00;97552.00;5037730;28;20681;-75
2022/02/15 05:48:44;;;;;;;6.90;2.33;;;5.50;99.90;;;6.37;100.00;97562.13;5039510;28;20456;-75
2022/02/15 05:51:15;;;;;;;4.27;2.73;;;5.50;99.90;;;6.40;100.00;97566.16;5036646;28;20449;-75
2022/02/15 05:53:47;;;;;;;3.43;2.47;;;5.50;99.90;;;6.42;100.00;97575.38;5038322;28;20961;-75
2022/02/15 05:56:17;;;;;;;3.23;1.87;;;5.50;99.90;;;6.41;100.00;97573.78;5038389;28;20445;-75
2022/02/15 05:58:46;;;;;;;2.33;2.13;;;5.70;99.90;;;6.35;100.00;97568.47;5039478;28;20476;-75
2022/02/15 06:01:17;;;;;;;2.67;1.73;;;5.70;99.90;;;6.40;100.00;97586.91;5038637;28;20545;-75
2022/02/15 06:06:34;;;;;;;2.00;1.90;;;5.80;99.90;;;6.44;100.00;97588.19;5038547;28;20947;-75
2022/02/15 06:09:07;;;;;;;2.10;1.90;;;5.70;99.90;;;6.45;100.00;97589.81;5039135;28;20442;-74
2022/02/15 06:11:38;;;;;;;5.17;1.93;;;5.70;99.90;;;6.44;100.00;97594.22;5039614;28;20876;-75
2022/02/15 06:14:09;;;;;;;1.40;1.30;;;5.70;99.90;;;6.43;100.00;97605.56;5039398;28;20442;-75
2022/02/15 06:16:39;;;;;;;3.00;1.60;;;5.60;99.90;;;6.44;100.00;97598.59;5035919;28;20537;-75
2022/02/15 06:19:08;;;;;;;2.17;1.50;;;5.80;99.90;;;6.43;100.00;97602.97;5033796;28;20515;-75
2022/02/15 06:21:38;;;;;;;1.83;1.30;;;5.90;99.90;;;6.39;100.00;97612.06;5035608;28;20454;-75
2022/02/15 06:24:10;;;;;;;2.80;1.50;;;5.80;99.90;;;6.38;100.00;97620.88;5037533;28;20450;-75
2022/02/15 06:27:02;;;;;;;1.40;1.30;;;5.80;99.90;;;6.35;100.00;97634.16;5034558;28;20554;-75
2022/02/15 06:29:36;;;;;;;1.33;1.23;;;5.70;99.90;;;6.35;100.00;97633.38;5033318;28;20481;-75
2022/02/15 06:32:09;;;;;;;2.23;1.30;;;5.70;99.90;;;6.34;100.00;97636.94;5035106;28;20468;-75
2022/02/15 06:34:40;;;;;;;1.50;1.40;;;5.70;99.90;;;6.31;100.00;97640.69;5035867;28;20617;-75
2022/02/15 06:37:15;;;;;;;1.60;1.50;;;5.60;99.90;;;6.29;100.00;97642.63;5037082;28;20449;-74
2022/02/15 06:39:47;;;;;;;1.30;1.03;;;5.60;99.90;;;6.25;100.00;97649.16;5034948;28;21009;-75
2022/02/15 06:42:18;;;;;;;1.37;1.27;;;5.50;99.90;;;6.27;100.00;97649.00;5036018;28;20458;-75
2022/02/15 06:44:48;;;;;;;1.53;1.27;;;5.60;99.90;;;6.28;100.00;97648.81;5036106;28;20504;-75
2022/02/15 06:47:18;;;;;;;2.93;1.40;;;5.60;99.90;;;6.25;100.00;97656.94;5036184;28;20450;-74
2022/02/15 06:49:48;;;;;;;1.60;1.40;;;5.50;99.90;;;6.22;100.00;97672.84;5034865;28;20488;-75
2022/02/15 06:52:20;;;;;;;1.53;1.43;;;5.50;99.90;;;6.19;100.00;97678.38;5035410;28;20453;-75
2022/02/15 06:54:51;;;;;;;1.77;1.60;;;5.60;99.90;;;6.16;100.00;97688.28;5034941;28;20569;-75
2022/02/15 06:57:21;;;;;;;1.23;1.13;;;5.60;99.90;;;6.11;100.00;97688.78;5034913;28;20497;-74
2022/02/15 06:59:50;;;;;;;2.50;1.90;;;5.50;99.90;;;6.10;100.00;97687.19;5038149;28;20544;-75
2022/02/15 07:02:21;;;;;;;3.13;2.20;;;5.40;99.90;;;6.08;100.00;97695.13;5038529;28;21052;-75
2022/02/15 07:04:50;;;;;;;2.47;1.80;;;5.40;99.90;;;6.03;100.00;97704.41;5038343;28;20470;-75
2022/02/15 07:07:21;;;;;;;2.17;1.70;;;5.30;99.90;;;6.03;100.00;97707.00;5038202;28;20445;-75
2022/02/15 07:09:52;;;;;;;2.40;1.40;;;5.50;99.90;;;5.97;100.00;97705.09;5036634;28;20526;-75
2022/02/15 07:12:23;;;;;;;3.97;1.50;;;5.30;99.90;;;5.97;100.00;97712.88;5037989;28;20477;-75
2022/02/15 07:14:53;;;;;;;1.60;1.50;;;5.40;99.90;;;5.90;100.00;97719.69;5038401;28;20489;-75
2022/02/15 07:17:26;;;;;;;2.70;1.70;;;5.20;99.90;;;5.86;100.00;97719.22;5038647;28;20456;-75
2022/02/15 07:19:55;;;;;;;2.70;2.07;;;5.30;99.90;;;5.82;100.00;97723.06;5037277;28;20836;-75
2022/02/15 07:22:26;;;;;;;1.50;1.40;;;5.20;99.90;;;5.77;100.00;97727.13;5038087;28;20544;-75
2022/02/15 07:24:57;;;;;;;2.40;1.80;;;5.00;99.90;;;5.77;100.00;97729.72;5039678;28;20461;-74
2022/02/15 07:27:29;;;;;;;2.03;1.67;;;4.90;99.90;;;5.79;100.00;97736.38;5040757;28;20456;-74
2022/02/15 07:29:59;;;;;;;3.47;1.70;;;5.10;99.90;;;5.74;100.00;97735.22;5042738;28;20452;-75
2022/02/15 07:32:31;;;;;;;2.93;2.10;;;5.00;99.90;;;5.70;100.00;97750.31;5040532;28;20548;-74
2022/02/15 07:35:01;;;;;;;4.70;1.87;;;5.00;99.90;;;5.70;100.00;97746.91;5041255;28;20489;-74
2022/02/15 07:37:31;;;;;;;2.17;1.70;;;5.00;99.90;;;5.68;100.00;97751.47;5041519;28;20449;-75
2022/02/15 07:40:03;;;;;;;3.90;2.10;;;5.00;99.90;;;5.73;100.00;97760.34;5037948;28;21020;-75
2022/02/15 07:42:33;;;;;;;6.93;1.87;;;5.00;99.90;;;5.81;100.00;97751.75;5040752;28;20536;-75
2022/02/15 07:45:04;;;;;;;3.83;2.47;;;5.20;99.90;;;5.88;100.00;97752.75;5041165;28;20465;-75
2022/02/15 07:47:33;;;;;;;3.33;2.13;;;5.30;99.90;;;5.89;100.00;97764.75;5043158;28;20449;-75
2022/02/15 07:50:05;;;;;;;5.60;2.70;;;5.30;99.90;;;5.92;100.00;97774.81;5042004;28;20457;-75
2022/02/15 07:52:35;;;;;;;7.07;3.20;;;5.40;99.90;;;5.93;100.00;97771.25;5041791;28;20506;-74
2022/02/15 07:55:09;;;;;;;3.40;2.00;;;5.40;99.90;;;6.02;100.00;97776.25;5040636;28;20512;-75
2022/02/15 07:57:41;;;;;;;7.63;2.53;;;5.50;99.90;;;6.05;100.00;97777.69;5040873;28;20465;-75
2022/02/15 08:00:18;;;;;;;4.53;1.83;;;5.50;99.90;;;6.06;100.00;97782.75;5040659;28;20453;-75
2022/02/15 08:02:50;;;;;;;2.40;1.70;;;5.50;99.90;;;6.11;100.00;97782.22;5039015;28;20592;-74
2022/02/15 08:05:20;;;;;;;2.73;1.97;;;5.50;99.90;;;6.14;100.00;97781.09;5040647;28;20469;-75
2022/02/15 08:07:50;;;;;;;2.90;1.57;;;5.50;99.90;;;6.18;100.00;97774.63;5040633;28;20531;-75
2022/02/15 08:10:23;;;;;;;5.53;2.07;;;5.50;99.90;;;6.22;100.00;97768.91;5040466;28;20455;-75
2022/02/15 08:12:57;;;;;;;2.40;1.70;;;5.50;99.90;;;6.22;100.00;97771.50;5039267;28;20446;-75
2022/02/15 08:15:30;;;;;;;2.50;2.00;;;5.40;99.90;;;6.25;100.00;97772.97;5038911;28;20474;-75
2022/02/15 08:18:02;;;;;;;2.23;2.00;;;5.40;99.90;;;6.27;100.00;97774.41;5039125;28;20907;-75
2022/02/15 08:20:36;;;;;;;3.67;1.90;;;5.50;99.90;;;6.33;100.00;97778.13;5040081;28;20456;-74
2022/02/15 08:23:05;;;;;;;6.50;2.60;;;5.60;99.90;;;6.32;100.00;97777.31;5039022;28;20454;-75
2022/02/15 08:25:36;;;;;;;2.00;1.70;;;5.70;99.90;;;6.32;100.00;97781.69;5037747;28;20450;-75
2022/02/15 08:28:06;;;;;;;3.50;1.80;;;5.80;99.90;;;6.33;100.00;97778.13;5037451;28;21704;-74
2022/02/15 08:30:37;;;;;;;4.80;1.83;;;5.70;99.90;;;6.41;100.00;97780.72;5040474;28;20464;-75
2022/02/15 08:33:07;;;;;;;3.07;2.00;;;5.90;99.90;;;6.44;100.00;97786.38;5038935;28;20461;-75
2022/02/15 08:35:36;;;;;;;1.73;1.60;;;5.90;99.90;;;6.49;100.00;97791.88;5038546;28;20486;-74
2022/02/15 08:38:06;;;;;;;4.53;2.27;;;5.90;99.90;;;6.56;100.00;97785.03;5036689;28;20497;-75
2022/02/15 08:40:38;;;;;;;6.90;1.97;;;6.00;99.90;;;6.63;100.00;97786.97;5036348;28;20446;-75
2022/02/15 08:43:07;;;;;;;3.87;1.80;;;6.00;99.90;;;6.72;100.00;97797.16;5039576;28;20446;-75
2022/02/15 08:45:37;;;;;;;3.47;1.60;;;6.20;99.90;;;6.69;100.00;97804.47;5036827;28;20480;-75
2022/02/15 08:48:08;;;;;;;2.20;1.83;;;6.10;99.90;;;6.70;100.00;97800.91;5037924;28;20446;-75
2022/02/15 08:50:38;;;;;;;3.10;1.90;;;6.00;99.90;;;6.66;100.00;97807.41;5039122;28;20441;-75
2022/02/15 08:53:08;;;;;;;3.83;1.83;;;6.10;99.90;;;6.62;100.00;97816.50;5036708;28;20500;-75
2022/02/15 08:55:38;;;;;;;2.27;2.00;;;6.00;99.90;;;6.69;100.00;97822.66;5036644;28;20859;-75
2022/02/15 08:58:08;;;;;;;2.80;1.70;;;6.10;99.90;;;6.69;100.00;97825.25;5039659;28;21032;-75
2022/02/15 09:00:38;;;;;;;2.27;1.77;;;6.10;99.90;;;6.68;100.00;97826.22;5040465;28;20450;-75
2022/02/15 09:03:08;;;;;;;2.23;2.00;;;6.10;99.90;;;6.67;100.00;97828.00;5039618;28;21042;-75
2022/02/15 09:05:38;;;;;;;3.90;1.90;;;6.10;99.90;;;6.75;100.00;97832.38;5040212;28;20487;-75
2022/02/15 09:08:07;;;;;;;5.90;2.10;;;6.20;99.90;;;6.78;100.00;97822.44;5040843;28;20465;-75
2022/02/15 09:10:40;;;;;;;3.20;2.03;;;6.20;99.90;;;6.86;100.00;97827.63;5040527;28;20484;-75
2022/02/15 09:13:09;;;;;;;7.63;1.60;;;6.30;99.90;;;6.88;100.00;97825.66;5040110;28;20462;-75
2022/02/15 09:15:38;;;;;;;2.50;1.80;;;6.40;99.90;;;6.87;100.00;97824.03;5040774;28;20454;-75
2022/02/15 09:18:07;;;;;;;1.87;1.67;;;6.40;99.90;;;6.95;100.00;97831.81;5039076;28;20449;-75
2022/02/15 09:20:38;;;;;;;1.80;1.60;;;6.50;99.90;;;6.89;100.00;97831.66;5040228;28;20509;-75
2022/02/15 09:23:09;;;;;;;3.63;1.70;;;6.30;99.90;;;6.95;100.00;97831.81;5040361;28;20858;-75
2022/02/15 09:25:40;;;;;;;4.27;1.70;;;6.50;99.90;;;6.89;100.00;97829.06;5039278;28;21015;-75
2022/02/15 09:28:10;;;;;;;2.20;1.50;;;6.30;99.90;;;6.88;100.00;97827.44;5039355;28;20520;-74
2022/02/15 09:30:40;;;;;;;4.50;1.77;;;6.30;99.90;;;6.89;100.00;97836.88;5040181;28;20511;-75
2022/02/15 09:33:10;;;;;;;1.40;1.30;;;6.30;99.90;;;6.88;100.00;97835.25;5038609;28;20474;-75
2022/02/15 09:36:00;;;;;;;1.97;1.80;;;6.40;99.90;;;6.88;100.00;97836.06;5039843;28;20545;-75
2022/02/15 09:38:31;;;;;;;1.53;1.43;;;6.40;99.90;;;6.88;100.00;97830.84;5040321;28;20446;-75
2022/02/15 09:41:06;;;;;;;1.30;1.20;;;6.40;99.90;;;6.92;100.00;97831.31;5039823;28;20949;-75
2022/02/15 09:43:37;;;;;;;2.10;1.67;;;6.50;99.90;;;6.99;100.00;97829.66;5039568;28;20453;-75
2022/02/15 09:46:11;;;;;;;2.07;1.47;;;6.50;99.90;;;7.05;100.00;97834.19;5038434;28;20503;-75
2022/02/15 09:48:41;;;;;;;5.03;1.60;;;6.60;99.90;;;7.05;100.00;97831.59;5038456;28;20549;-75
2022/02/15 09:51:13;;;;;;;1.50;1.40;;;6.50;99.90;;;7.11;100.00;97846.53;5038493;28;20470;-75
2022/02/15 09:53:42;;;;;;;1.77;1.60;;;6.60;99.90;;;7.15;100.00;97847.78;5037978;28;20448;-75
2022/02/15 09:56:14;;;;;;;1.73;1.20;;;6.70;99.90;;;7.21;100.00;97847.13;5039191;28;20456;-75
2022/02/15 09:58:44;;;;;;;1.40;1.30;;;6.70;99.90;;;7.19;100.00;97859.47;5037418;28;20485;-75
2022/02/15 10:01:17;;;;;;;2.70;1.67;;;6.80;99.90;;;7.22;100.00;97859.13;5039701;28;20589;-75
2022/02/15 10:03:58;;;;;;;1.40;1.30;;;6.70;99.90;;;7.31;100.00;97872.91;5038822;28;20567;-75
2022/02/15 10:06:32;;;;;;;2.13;1.30;;;6.80;99.90;;;7.33;100.00;97871.75;5039057;28;20444;-75
2022/02/15 10:09:04;;;;;;;2.80;1.27;;;6.80;99.90;;;7.36;100.00;97881.81;5038777;28;20448;-75
2022/02/15 10:11:45;;;;;;;1.23;1.10;;;6.90;99.90;;;7.17;100.00;97897.84;5038816;28;20469;-75
2022/02/15 10:14:20;;;;;;;1.13;1.03;;;6.60;99.90;;;7.12;100.00;97888.91;5035125;28;20442;-74
2022/02/15 10:16:51;;;;;;;6.60;1.30;;;6.60;99.90;;;7.07;100.00;97894.63;5036167;28;20487;-75
2022/02/15 10:19:25;;;;;;;1.20;1.00;;;6.60;99.90;;;7.07;100.00;97903.25;5035829;28;20430;-75
2022/02/15 10:21:56;;;;;;;4.70;1.33;;;6.60;99.90;;;7.06;100.00;97893.00;5036471;28;20453;-75
2022/02/15 10:24:29;;;;;;;1.77;0.90;;;6.60;99.90;;;7.05;100.00;97893.97;5035903;28;20454;-75
2022/02/15 10:27:04;;;;;;;2.30;1.07;;;6.60;99.90;;;7.06;100.00;97899.03;5035072;28;20462;-75
2022/02/15 10:29:36;;;;;;;1.13;1.03;;;6.50;99.90;;;7.04;100.00;97898.38;5033360;28;20573;-74
2022/02/15 10:32:09;;;;;;;3.10;1.40;;;6.50;99.90;;;7.06;100.00;97896.41;5036347;28;20450;-75
2022/02/15 10:34:47;;;;;;;1.40;1.30;;;6.60;99.90;;;7.01;100.00;97903.13;5036270;28;20489;-75
2022/02/15 10:37:18;;;;;;;2.83;1.33;;;6.40;99.90;;;6.98;100.00;97904.25;5034432;28;20581;-75
2022/02/15 10:39:56;;;;;;;1.47;1.20;;;6.50;99.90;;;7.03;100.00;97908.94;5034818;28;20802;-75
2022/02/15 10:42:30;;;;;;;1.37;1.10;;;6.50;99.90;;;7.05;100.00;97909.56;5035230;28;20469;-75
2022/02/15 10:45:02;;;;;;;2.80;1.40;;;6.60;99.90;;;7.04;100.00;97907.97;5036282;28;20581;-75
2022/02/15 10:47:33;;;;;;;2.93;1.20;;;6.50;99.90;;;7.14;100.00;97908.59;5034966;28;20450;-75
2022/02/15 10:50:08;;;;;;;2.30;1.20;;;6.70;99.90;;;7.22;100.00;97910.34;5035723;28;20951;-75